Ruby Princess — ZCDY2 — position and weather

sailwx.info

Track history (hours):
 
Tides and Currents Weather Stations Pressure Air Temp Water Temp Dewpoint Dewpoint Depression Visibility Wind Speed Wind Dir Waves Ship Positions

Ruby Princess

Last reported at 2017-Mar-24 09:33 UTC. Time now 2017-Mar-24 10:17 UTC.
Position N 31°39' W 117°32'.

Length 289 m; draft 8.5 m.

Type: Ship. MMSI: 310567000.

Date/timePositionNaut miles runAvg speedWind from/ knotsBaromVisibWave heightAir tempDewpointWater temp
2017-Mar-24 09:33N 31°39' W 117°32'2210.5
2017-Mar-24 07:25N 31°44' W 117°58'2711.7
2017-Mar-24 05:06N 32°11' W 117°56'712.3
2017-Mar-24 04:33N 32°17' W 117°54'1212.2
2017-Mar-24 03:33N 32°23' W 117°41'1211.6
2017-Mar-24 02:33N 32°28' W 117°29'1111.5
2017-Mar-24 01:33N 32°33' W 117°16'1110.7
2017-Mar-24 00:33N 32°43' W 117°13'2 2.2
2017-Mar-23 23:33N 32°43' W 117°10'0 0.0
2017-Mar-23 22:32N 32°43' W 117°10'0 0.0
2017-Mar-23 21:26N 32°43' W 117°10'0 0.0
2017-Mar-23 20:19N 32°43' W 117°10'0 0.0
2017-Mar-23 19:31N 32°43' W 117°10'0 0.0
2017-Mar-23 18:31N 32°43' W 117°10'0 0.0
2017-Mar-23 17:24N 32°43' W 117°10'0 0.0
2017-Mar-23 16:30N 32°43' W 117°10'0 0.0
2017-Mar-23 15:32N 32°43' W 117°10'0 0.1
2017-Mar-23 14:33N 32°43' W 117°11'8 7.7
2017-Mar-23 13:33N 32°36' W 117°15'1010.2
2017-Mar-23 12:33N 32°31' W 117°25'1212.2
2017-Mar-23 11:34N 32°35' W 117°38'1212.2
2017-Mar-23 10:33N 32°41' W 117°50'1313.5
2017-Mar-23 09:33N 32°51' W 118°02'1515.2
2017-Mar-23 08:33N 33°02' W 118°14'1716.5
2017-Mar-23 07:33N 33°14' W 118°28'1916.9
2017-Mar-23 06:27N 33°27' W 118°44'1516.6
2017-Mar-23 05:33N 33°39' W 118°54'1716.7
2017-Mar-23 04:33N 33°53' W 119°06'1616.1
2017-Mar-23 03:32N 34°03' W 119°21'1716.6
2017-Mar-23 02:32N 34°09' W 119°40'15 1.2
2017-Mar-22 14:27N 34°24' W 119°41'1 1.0
2017-Mar-22 13:27N 34°23' W 119°41'1311.6
2017-Mar-22 12:22N 34°10' W 119°41'910.9
2017-Mar-22 11:33N 34°11' W 119°52'1312.4
2017-Mar-22 10:29N 34°14' W 120°07'6412.4
2017-Mar-22 05:20N 34°31' W 121°22'3612.4
2017-Mar-22 02:29N 34°41' W 122°03'1112.3
2017-Mar-22 01:33N 34°44' W 122°17'1312.2
2017-Mar-22 00:30N 34°48' W 122°32'1212.4
2017-Mar-21 23:33N 34°51' W 122°45'1412.3
2017-Mar-21 22:23N 34°55' W 123°02'1212.5
2017-Mar-21 21:25N 34°58' W 123°16'1011.9
2017-Mar-21 20:33N 35°09' W 123°19'1312.4
2017-Mar-21 19:31N 35°21' W 123°19'1212.1
2017-Mar-21 18:30N 35°34' W 123°18'1212.2
2017-Mar-21 17:33N 35°45' W 123°18'1211.9
2017-Mar-21 16:33N 35°57' W 123°17'2612.1
2017-Mar-21 14:23N 36°22' W 123°07'1024.8
2017-Mar-21 14:00N 36°30' W 123°00'3 6.8 220 / 151017.710.8 14.112.813.8
2017-Mar-21 13:33N 36°32' W 123°03'1212.5
2017-Mar-21 12:33N 36°44' W 122°58'1412.5
2017-Mar-21 11:27N 36°57' W 122°53'1112.7
2017-Mar-21 10:33N 37°08' W 122°48'1212.5
2017-Mar-21 09:33N 37°19' W 122°44'1212.1
2017-Mar-21 08:33N 37°31' W 122°44'1212.2
2017-Mar-21 07:33N 37°44' W 122°43'1312.7
2017-Mar-21 06:33N 37°49' W 122°29'4 3.9
2017-Mar-21 05:33N 37°48' W 122°24'0 0.0
2017-Mar-21 04:32N 37°48' W 122°24'0 0.0
2017-Mar-21 03:32N 37°48' W 122°24'0 0.0
2017-Mar-21 02:31N 37°48' W 122°24'0 0.0
2017-Mar-21 01:31N 37°48' W 122°24'0 0.0
2017-Mar-21 00:33N 37°48' W 122°24'0 0.0
2017-Mar-20 23:33N 37°48' W 122°24'0 0.0
2017-Mar-20 22:33N 37°48' W 122°24'0 0.0
2017-Mar-20 21:32N 37°48' W 122°24'0 0.0
2017-Mar-20 20:32N 37°48' W 122°24'0 0.0
2017-Mar-20 19:31N 37°48' W 122°24'0 0.0
2017-Mar-20 18:31N 37°48' W 122°24'0 0.0
2017-Mar-20 17:33N 37°48' W 122°24'0 0.0
2017-Mar-20 16:33N 37°48' W 122°24'0 0.0
2017-Mar-20 15:33N 37°48' W 122°24'0 0.0
2017-Mar-20 14:32N 37°48' W 122°24'0 0.2
2017-Mar-20 13:34N 37°48' W 122°24'7 7.5
2017-Mar-20 12:34N 37°47' W 122°33'10 9.9
2017-Mar-20 11:33N 37°39' W 122°40'1312.8
2017-Mar-20 10:33N 37°26' W 122°40'1312.6
2017-Mar-20 09:33N 37°14' W 122°42'1313.1
2017-Mar-20 08:33N 37°02' W 122°49'1312.7
2017-Mar-20 07:33N 36°50' W 122°56'1312.7
2017-Mar-20 06:33N 36°39' W 123°03'1212.2
2017-Mar-20 05:33N 36°28' W 123°09'1212.4
2017-Mar-20 04:33N 36°17' W 123°16'1312.6
2017-Mar-20 03:33N 36°05' W 123°22'1312.6
2017-Mar-20 02:33N 35°53' W 123°24'1312.7
2017-Mar-20 01:34N 35°40' W 123°24'1312.6
2017-Mar-20 00:33N 35°27' W 123°24'1211.5
2017-Mar-19 23:33N 35°18' W 123°16'1212.4
2017-Mar-19 22:33N 35°10' W 123°04'1312.5
2017-Mar-19 21:33N 35°02' W 122°52'1312.6
2017-Mar-19 20:33N 34°54' W 122°40'1212.3
2017-Mar-19 19:33N 34°46' W 122°29'1312.5
2017-Mar-19 18:33N 34°38' W 122°17'5 8.4
2017-Mar-19 18:00N 34°36' W 122°12'817.6 220 / 91020.710.8 14.010.214.0
2017-Mar-19 17:33N 34°31' W 122°05'1212.1
2017-Mar-19 16:33N 34°23' W 121°54'1312.7
2017-Mar-19 15:33N 34°15' W 121°42'1212.4
2017-Mar-19 14:33N 34°07' W 121°30'1312.5
2017-Mar-19 13:33N 33°59' W 121°19'1212.4
2017-Mar-19 12:33N 33°51' W 121°07'1212.5
2017-Mar-19 11:33N 33°43' W 120°56'1211.9
2017-Mar-19 10:33N 33°39' W 120°42'1212.2
2017-Mar-19 09:33N 33°39' W 120°28'1212.2
2017-Mar-19 08:33N 33°39' W 120°13'1312.5
2017-Mar-19 07:33N 33°39' W 119°58'1212.5
2017-Mar-19 06:33N 33°39' W 119°43'1212.0
2017-Mar-19 05:33N 33°39' W 119°29'1312.2
2017-Mar-19 04:31N 33°39' W 119°13'1212.3
2017-Mar-19 03:33N 33°38' W 118°59'1212.5
2017-Mar-19 02:33N 33°38' W 118°44'1212.2
2017-Mar-19 01:33N 33°38' W 118°30'1211.7
2017-Mar-19 00:33N 33°40' W 118°16'5 4.7
2017-Mar-18 23:32N 33°45' W 118°17'0 0.0
2017-Mar-18 22:13N 33°45' W 118°17'0 0.0
2017-Mar-18 21:31N 33°45' W 118°17'0 0.0
2017-Mar-18 20:25N 33°45' W 118°17'0 0.0
2017-Mar-18 19:33N 33°45' W 118°17'0 0.0
2017-Mar-18 18:33N 33°45' W 118°17'0 0.0
2017-Mar-18 17:32N 33°45' W 118°17'0 0.0
2017-Mar-18 15:28N 33°45' W 118°17'0 0.0
2017-Mar-18 14:16N 33°45' W 118°17'0 0.1
2017-Mar-18 13:33N 33°45' W 118°17'5 5.1
2017-Mar-18 12:33N 33°41' W 118°13'1211.6
2017-Mar-18 11:33N 33°30' W 118°08'1514.7
2017-Mar-18 10:33N 33°16' W 118°01'1717.3
2017-Mar-18 09:34N 33°00' W 117°54'1919.0
2017-Mar-18 08:33N 32°42' W 117°47'2019.9
2017-Mar-18 07:33N 32°23' W 117°38'2120.6
2017-Mar-18 06:33N 32°04' W 117°30'2121.0
2017-Mar-18 05:34N 31°45' W 117°21'2221.7
2017-Mar-18 04:34N 31°24' W 117°12'2121.4
2017-Mar-18 03:33N 31°04' W 117°03'2121.3
2017-Mar-18 02:33N 30°44' W 116°54'2421.5
2017-Mar-18 01:27N 30°22' W 116°45'1820.5
2017-Mar-18 00:33N 30°05' W 116°37'15421.1
2017-Mar-17 17:15N 27°45' W 115°23'2021.5
2017-Mar-17 16:19N 27°29' W 115°09'1722.3
2017-Mar-17 15:33N 27°17' W 114°56'25221.9
2017-Mar-17 04:04N 24°09' W 111°49'22110.5
2017-Mar-16 07:00N 23°00' W 108°00'155 6.2 050 / 21017.210.8 22.020.522.0
2017-Mar-15 06:00N 21°18' W 105°54'   230 / 81017.210.8 23.019.924.3
Track history (hours):
 
Tides and Currents Weather Stations Pressure Air Temp Water Temp Dewpoint Dewpoint Depression Visibility Wind Speed Wind Dir Waves Ship Positions

Ruby Princess

Last reported at 2017-Mar-24 09:33 UTC. Time now 2017-Mar-24 10:17 UTC.
Position N 31°39' W 117°32'.

Length 289 m; draft 8.5 m.

Type: Ship. MMSI: 310567000.

Date/timePositionNaut miles runAvg speedWind from/ knotsBaromVisibWave heightAir tempDewpointWater temp
2017-Mar-24 09:33N 31°39' W 117°32'2210.5
2017-Mar-24 07:25N 31°44' W 117°58'2711.7
2017-Mar-24 05:06N 32°11' W 117°56'712.3
2017-Mar-24 04:33N 32°17' W 117°54'1212.2
2017-Mar-24 03:33N 32°23' W 117°41'1211.6
2017-Mar-24 02:33N 32°28' W 117°29'1111.5
2017-Mar-24 01:33N 32°33' W 117°16'1110.7
2017-Mar-24 00:33N 32°43' W 117°13'2 2.2
2017-Mar-23 23:33N 32°43' W 117°10'0 0.0
2017-Mar-23 22:32N 32°43' W 117°10'0 0.0
2017-Mar-23 21:26N 32°43' W 117°10'0 0.0
2017-Mar-23 20:19N 32°43' W 117°10'0 0.0
2017-Mar-23 19:31N 32°43' W 117°10'0 0.0
2017-Mar-23 18:31N 32°43' W 117°10'0 0.0
2017-Mar-23 17:24N 32°43' W 117°10'0 0.0
2017-Mar-23 16:30N 32°43' W 117°10'0 0.0
2017-Mar-23 15:32N 32°43' W 117°10'0 0.1
2017-Mar-23 14:33N 32°43' W 117°11'8 7.7
2017-Mar-23 13:33N 32°36' W 117°15'1010.2
2017-Mar-23 12:33N 32°31' W 117°25'1212.2
2017-Mar-23 11:34N 32°35' W 117°38'1212.2
2017-Mar-23 10:33N 32°41' W 117°50'1313.5
2017-Mar-23 09:33N 32°51' W 118°02'1515.2
2017-Mar-23 08:33N 33°02' W 118°14'1716.5
2017-Mar-23 07:33N 33°14' W 118°28'1916.9
2017-Mar-23 06:27N 33°27' W 118°44'1516.6
2017-Mar-23 05:33N 33°39' W 118°54'1716.7
2017-Mar-23 04:33N 33°53' W 119°06'1616.1
2017-Mar-23 03:32N 34°03' W 119°21'1716.6
2017-Mar-23 02:32N 34°09' W 119°40'15 1.2
2017-Mar-22 14:27N 34°24' W 119°41'1 1.0
2017-Mar-22 13:27N 34°23' W 119°41'1311.6
2017-Mar-22 12:22N 34°10' W 119°41'910.9
2017-Mar-22 11:33N 34°11' W 119°52'1312.4
2017-Mar-22 10:29N 34°14' W 120°07'6412.4
2017-Mar-22 05:20N 34°31' W 121°22'3612.4
2017-Mar-22 02:29N 34°41' W 122°03'1112.3
2017-Mar-22 01:33N 34°44' W 122°17'1312.2
2017-Mar-22 00:30N 34°48' W 122°32'1212.4
2017-Mar-21 23:33N 34°51' W 122°45'1412.3
2017-Mar-21 22:23N 34°55' W 123°02'1212.5
2017-Mar-21 21:25N 34°58' W 123°16'1011.9
2017-Mar-21 20:33N 35°09' W 123°19'1312.4
2017-Mar-21 19:31N 35°21' W 123°19'1212.1
2017-Mar-21 18:30N 35°34' W 123°18'1212.2
2017-Mar-21 17:33N 35°45' W 123°18'1211.9
2017-Mar-21 16:33N 35°57' W 123°17'2612.1
2017-Mar-21 14:23N 36°22' W 123°07'1024.8
2017-Mar-21 14:00N 36°30' W 123°00'3 6.8 220 / 151017.710.8 14.112.813.8
2017-Mar-21 13:33N 36°32' W 123°03'1212.5
2017-Mar-21 12:33N 36°44' W 122°58'1412.5
2017-Mar-21 11:27N 36°57' W 122°53'1112.7
2017-Mar-21 10:33N 37°08' W 122°48'1212.5
2017-Mar-21 09:33N 37°19' W 122°44'1212.1
2017-Mar-21 08:33N 37°31' W 122°44'1212.2
2017-Mar-21 07:33N 37°44' W 122°43'1312.7
2017-Mar-21 06:33N 37°49' W 122°29'4 3.9
2017-Mar-21 05:33N 37°48' W 122°24'0 0.0
2017-Mar-21 04:32N 37°48' W 122°24'0 0.0
2017-Mar-21 03:32N 37°48' W 122°24'0 0.0
2017-Mar-21 02:31N 37°48' W 122°24'0 0.0
2017-Mar-21 01:31N 37°48' W 122°24'0 0.0
2017-Mar-21 00:33N 37°48' W 122°24'0 0.0
2017-Mar-20 23:33N 37°48' W 122°24'0 0.0
2017-Mar-20 22:33N 37°48' W 122°24'0 0.0
2017-Mar-20 21:32N 37°48' W 122°24'0 0.0
2017-Mar-20 20:32N 37°48' W 122°24'0 0.0
2017-Mar-20 19:31N 37°48' W 122°24'0 0.0
2017-Mar-20 18:31N 37°48' W 122°24'0 0.0
2017-Mar-20 17:33N 37°48' W 122°24'0 0.0
2017-Mar-20 16:33N 37°48' W 122°24'0 0.0
2017-Mar-20 15:33N 37°48' W 122°24'0 0.0
2017-Mar-20 14:32N 37°48' W 122°24'0 0.2
2017-Mar-20 13:34N 37°48' W 122°24'7 7.5
2017-Mar-20 12:34N 37°47' W 122°33'10 9.9
2017-Mar-20 11:33N 37°39' W 122°40'1312.8
2017-Mar-20 10:33N 37°26' W 122°40'1312.6
2017-Mar-20 09:33N 37°14' W 122°42'1313.1
2017-Mar-20 08:33N 37°02' W 122°49'1312.7
2017-Mar-20 07:33N 36°50' W 122°56'1312.7
2017-Mar-20 06:33N 36°39' W 123°03'1212.2
2017-Mar-20 05:33N 36°28' W 123°09'1212.4
2017-Mar-20 04:33N 36°17' W 123°16'1312.6
2017-Mar-20 03:33N 36°05' W 123°22'1312.6
2017-Mar-20 02:33N 35°53' W 123°24'1312.7
2017-Mar-20 01:34N 35°40' W 123°24'1312.6
2017-Mar-20 00:33N 35°27' W 123°24'1211.5
2017-Mar-19 23:33N 35°18' W 123°16'1212.4
2017-Mar-19 22:33N 35°10' W 123°04'1312.5
2017-Mar-19 21:33N 35°02' W 122°52'1312.6
2017-Mar-19 20:33N 34°54' W 122°40'1212.3
2017-Mar-19 19:33N 34°46' W 122°29'1312.5
2017-Mar-19 18:33N 34°38' W 122°17'5 8.4
2017-Mar-19 18:00N 34°36' W 122°12'817.6 220 / 91020.710.8 14.010.214.0
2017-Mar-19 17:33N 34°31' W 122°05'1212.1
2017-Mar-19 16:33N 34°23' W 121°54'1312.7
2017-Mar-19 15:33N 34°15' W 121°42'1212.4
2017-Mar-19 14:33N 34°07' W 121°30'1312.5
2017-Mar-19 13:33N 33°59' W 121°19'1212.4
2017-Mar-19 12:33N 33°51' W 121°07'1212.5
2017-Mar-19 11:33N 33°43' W 120°56'1211.9
2017-Mar-19 10:33N 33°39' W 120°42'1212.2
2017-Mar-19 09:33N 33°39' W 120°28'1212.2
2017-Mar-19 08:33N 33°39' W 120°13'1312.5
2017-Mar-19 07:33N 33°39' W 119°58'1212.5
2017-Mar-19 06:33N 33°39' W 119°43'1212.0
2017-Mar-19 05:33N 33°39' W 119°29'1312.2
2017-Mar-19 04:31N 33°39' W 119°13'1212.3
2017-Mar-19 03:33N 33°38' W 118°59'1212.5
2017-Mar-19 02:33N 33°38' W 118°44'1212.2
2017-Mar-19 01:33N 33°38' W 118°30'1211.7
2017-Mar-19 00:33N 33°40' W 118°16'5 4.7
2017-Mar-18 23:32N 33°45' W 118°17'0 0.0
2017-Mar-18 22:13N 33°45' W 118°17'0 0.0
2017-Mar-18 21:31N 33°45' W 118°17'0 0.0
2017-Mar-18 20:25N 33°45' W 118°17'0 0.0
2017-Mar-18 19:33N 33°45' W 118°17'0 0.0
2017-Mar-18 18:33N 33°45' W 118°17'0 0.0
2017-Mar-18 17:32N 33°45' W 118°17'0 0.0
2017-Mar-18 15:28N 33°45' W 118°17'0 0.0
2017-Mar-18 14:16N 33°45' W 118°17'0 0.1
2017-Mar-18 13:33N 33°45' W 118°17'5 5.1
2017-Mar-18 12:33N 33°41' W 118°13'1211.6
2017-Mar-18 11:33N 33°30' W 118°08'1514.7
2017-Mar-18 10:33N 33°16' W 118°01'1717.3
2017-Mar-18 09:34N 33°00' W 117°54'1919.0
2017-Mar-18 08:33N 32°42' W 117°47'2019.9
2017-Mar-18 07:33N 32°23' W 117°38'2120.6
2017-Mar-18 06:33N 32°04' W 117°30'2121.0
2017-Mar-18 05:34N 31°45' W 117°21'2221.7
2017-Mar-18 04:34N 31°24' W 117°12'2121.4
2017-Mar-18 03:33N 31°04' W 117°03'2121.3
2017-Mar-18 02:33N 30°44' W 116°54'2421.5
2017-Mar-18 01:27N 30°22' W 116°45'1820.5
2017-Mar-18 00:33N 30°05' W 116°37'15421.1
2017-Mar-17 17:15N 27°45' W 115°23'2021.5
2017-Mar-17 16:19N 27°29' W 115°09'1722.3
2017-Mar-17 15:33N 27°17' W 114°56'25221.9
2017-Mar-17 04:04N 24°09' W 111°49'22110.5
2017-Mar-16 07:00N 23°00' W 108°00'155 6.2 050 / 21017.210.8 22.020.522.0
2017-Mar-15 06:00N 21°18' W 105°54'   230 / 81017.210.8 23.019.924.3

Dump ship's entire track history